createdAt,value
2022-12-23T00:00:18.984Z,96023.53
2022-12-23T00:02:24.644Z,96014.06
2022-12-23T00:04:32.938Z,96006.44
2022-12-23T00:06:38.735Z,96002.22
2022-12-23T00:08:45.073Z,95996.19
2022-12-23T00:10:53.304Z,95997.75
2022-12-23T00:13:11.525Z,95998.06
2022-12-23T00:15:17.491Z,96000.97
2022-12-23T00:17:23.400Z,95995.47
2022-12-23T00:19:32.133Z,95991.28
2022-12-23T00:21:37.643Z,95994.69
2022-12-23T00:23:46.952Z,95991.56
2022-12-23T00:25:52.624Z,95980.81
2022-12-23T00:28:04.037Z,95970.09
2022-12-23T00:30:12.949Z,95968.28
2022-12-23T00:32:18.339Z,95960.66
2022-12-23T00:34:23.802Z,95962.03
2022-12-23T00:36:33.455Z,95964.16
2022-12-23T00:38:51.423Z,95963.38
2022-12-23T00:41:09.264Z,95964.25
2022-12-23T00:43:14.598Z,95956.13
2022-12-23T00:45:20.410Z,95950.13
2022-12-23T00:47:38.201Z,95950.69
2022-12-23T00:49:46.578Z,95946.00
2022-12-23T00:51:54.925Z,95949.97
2022-12-23T00:54:00.478Z,95939.25
2022-12-23T00:56:05.968Z,95937.97
2022-12-23T00:58:11.302Z,95926.13
2022-12-23T01:00:17.694Z,95934.31
2022-12-23T01:02:35.841Z,95935.13
2022-12-23T01:04:53.799Z,95929.34
2022-12-23T01:07:01.855Z,95919.38
2022-12-23T01:09:07.508Z,95937.03
2022-12-23T01:11:14.702Z,95939.94
2022-12-23T01:13:20.116Z,95929.19
2022-12-23T01:15:25.909Z,95927.63
2022-12-23T01:17:31.486Z,95923.72
2022-12-23T01:19:37.057Z,95919.53
2022-12-23T01:21:42.800Z,95916.41
2022-12-23T01:23:51.038Z,95925.34
2022-12-23T01:26:00.460Z,95926.41
2022-12-23T01:28:06.171Z,95917.72
2022-12-23T01:30:13.543Z,95910.13
2022-12-23T01:32:19.275Z,95925.91
2022-12-23T01:34:24.915Z,95920.66
2022-12-23T01:36:30.399Z,95924.81
2022-12-23T01:38:36.471Z,95927.19
2022-12-23T01:40:48.114Z,95925.34
2022-12-23T01:42:51.087Z,95907.69
2022-12-23T01:45:00.813Z,95896.91
2022-12-23T01:47:08.001Z,95905.34
2022-12-23T01:49:13.675Z,95909.56
2022-12-23T01:51:26.483Z,95903.00
2022-12-23T01:53:36.113Z,95898.00
2022-12-23T01:55:49.040Z,95889.34
2022-12-23T01:58:01.954Z,95883.03
2022-12-23T02:00:22.342Z,95890.09
2022-12-23T02:02:45.078Z,95887.47
2022-12-23T02:04:51.259Z,95889.34
2022-12-23T02:07:09.017Z,95886.72
2022-12-23T02:09:20.000Z,95892.25
2022-12-23T02:12:08.018Z,95880.44
2022-12-23T02:14:47.143Z,95889.97
2022-12-23T02:17:05.680Z,95888.38
2022-12-23T02:19:20.587Z,95896.78
2022-12-23T02:21:49.358Z,95895.50
2022-12-23T02:24:39.784Z,95905.25
2022-12-23T02:27:19.678Z,95905.81
2022-12-23T02:30:25.191Z,95910.28
2022-12-23T02:32:46.514Z,95909.78
2022-12-23T02:34:59.458Z,95912.97
2022-12-23T02:37:13.524Z,95921.16
2022-12-23T02:39:29.478Z,95906.34
2022-12-23T02:41:46.316Z,95914.75
2022-12-23T02:44:03.795Z,95907.16
2022-12-23T02:46:17.778Z,95908.22
2022-12-23T02:48:37.201Z,95909.78
2022-12-23T02:50:49.121Z,95917.09
2022-12-23T02:52:57.077Z,95905.53
2022-12-23T02:55:08.685Z,95907.06
2022-12-23T02:57:18.308Z,95914.69
2022-12-23T02:59:30.646Z,95907.59
2022-12-23T03:01:39.400Z,95904.97
2022-12-23T03:03:50.695Z,95911.28
2022-12-23T03:05:58.721Z,95906.50
2022-12-23T03:08:12.114Z,95901.75
2022-12-23T03:10:31.355Z,95906.03
2022-12-23T03:12:53.417Z,95905.72
2022-12-23T03:15:21.186Z,95908.09
2022-12-23T03:17:38.526Z,95902.81
2022-12-23T03:19:55.647Z,95899.91
2022-12-23T03:22:10.177Z,95908.59
2022-12-23T03:24:31.416Z,95906.47
2022-12-23T03:26:48.557Z,95902.78
2022-12-23T03:29:02.001Z,95906.19
2022-12-23T03:31:14.226Z,95904.31
2022-12-23T03:33:25.199Z,95909.03
2022-12-23T03:35:39.792Z,95908.00
2022-12-23T03:37:51.223Z,95903.53
2022-12-23T03:40:03.750Z,95912.69
2022-12-23T03:42:16.533Z,95905.88
2022-12-23T03:44:28.131Z,95910.06
2022-12-23T03:46:40.833Z,95909.00
2022-12-23T03:48:51.529Z,95905.59
2022-12-23T03:51:04.034Z,95912.41
2022-12-23T03:53:15.399Z,95917.66
2022-12-23T03:55:28.402Z,95915.81
2022-12-23T03:57:43.751Z,95917.38
2022-12-23T03:59:53.567Z,95918.94
2022-12-23T04:02:11.586Z,95919.72
2022-12-23T04:04:28.155Z,95917.91
2022-12-23T04:06:43.304Z,95918.38
2022-12-23T04:08:51.797Z,95931.78
2022-12-23T04:10:57.560Z,95924.94
2022-12-23T04:13:03.504Z,95921.25
2022-12-23T04:15:13.146Z,95916.47
2022-12-23T04:17:20.397Z,95919.63
2022-12-23T04:19:25.929Z,95907.25
2022-12-23T04:21:31.395Z,95917.69
2022-12-23T04:23:40.416Z,95918.19
2022-12-23T04:25:45.737Z,95923.94
2022-12-23T04:27:51.089Z,95922.59
2022-12-23T04:29:56.665Z,95918.34
2022-12-23T04:32:02.359Z,95920.13
2022-12-23T04:34:08.089Z,95918.50
2022-12-23T04:36:14.397Z,95920.25
2022-12-23T04:38:20.019Z,95929.94
2022-12-23T04:40:28.194Z,95933.56
2022-12-23T04:42:33.543Z,95933.47
2022-12-23T04:44:38.954Z,95936.06
2022-12-23T04:46:44.549Z,95935.75
2022-12-23T04:48:50.124Z,95938.81
2022-12-23T04:50:55.435Z,95935.72
2022-12-23T04:53:00.970Z,95944.03
2022-12-23T04:55:06.362Z,95954.19
2022-12-23T04:57:14.624Z,95949.16
2022-12-23T04:59:19.949Z,95955.38
2022-12-23T05:01:25.387Z,95956.38
2022-12-23T05:03:30.907Z,95953.44
2022-12-23T05:05:36.494Z,95960.78
2022-12-23T05:07:41.829Z,95955.50
2022-12-23T05:09:47.189Z,95960.41
2022-12-23T05:11:52.774Z,95960.91
2022-12-23T05:14:01.365Z,95972.72
2022-12-23T05:16:07.338Z,95973.72
2022-12-23T05:18:12.658Z,95961.03
2022-12-23T05:20:18.247Z,95968.34
2022-12-23T05:22:23.678Z,95969.94
2022-12-23T05:24:29.067Z,95975.19
2022-12-23T05:26:34.700Z,95976.19
2022-12-23T05:28:40.040Z,95976.97
2022-12-23T05:30:48.191Z,95986.44
2022-12-23T05:32:56.631Z,95975.41
2022-12-23T05:35:02.232Z,95981.41
2022-12-23T05:37:07.546Z,95981.88
2022-12-23T05:39:13.345Z,95987.16
2022-12-23T05:41:19.829Z,95993.19
2022-12-23T05:43:26.020Z,95990.28
2022-12-23T05:45:31.304Z,95995.25
2022-12-23T05:47:40.100Z,95998.19
2022-12-23T05:49:45.498Z,96000.22
2022-12-23T05:51:51.143Z,96003.38
2022-12-23T05:53:56.483Z,96003.84
2022-12-23T05:56:02.069Z,96017.03
2022-12-23T05:58:07.591Z,96009.13
2022-12-23T06:00:14.518Z,96009.13
2022-12-23T06:02:22.341Z,96006.22
2022-12-23T06:04:30.652Z,96004.66
2022-12-23T06:06:36.039Z,96012.28
2022-12-23T06:08:41.433Z,96014.34
2022-12-23T06:10:47.136Z,96008.78
2022-12-23T06:12:52.642Z,96003.78
2022-12-23T06:14:58.045Z,96020.59
2022-12-23T06:17:03.455Z,96016.69
2022-12-23T06:19:08.870Z,96021.38
2022-12-23T06:21:16.807Z,96019.81
2022-12-23T06:23:22.114Z,96031.16
2022-12-23T06:25:27.782Z,96022.97
2022-12-23T06:27:33.173Z,96027.41
2022-12-23T06:29:38.945Z,96033.53
2022-12-23T06:31:44.318Z,96044.06
2022-12-23T06:33:49.695Z,96051.41
2022-12-23T06:35:54.982Z,96058.53
2022-12-23T06:38:05.478Z,96063.78
2022-12-23T06:40:16.036Z,96064.59
2022-12-23T06:42:21.394Z,96060.09
2022-12-23T06:44:26.780Z,96068.81
2022-12-23T06:46:32.258Z,96068.81
2022-12-23T06:48:37.569Z,96070.34
2022-12-23T06:50:42.943Z,96073.00
2022-12-23T06:52:49.178Z,96077.19
2022-12-23T06:54:57.159Z,96080.63
2022-12-23T06:57:02.626Z,96079.25
2022-12-23T06:59:08.263Z,96070.28
2022-12-23T07:01:13.831Z,96075.03
2022-12-23T07:03:19.429Z,96075.28
2022-12-23T07:05:25.248Z,96068.91
2022-12-23T07:07:32.384Z,96072.34
2022-12-23T07:09:37.741Z,96079.44
2022-12-23T07:11:45.710Z,96079.19
2022-12-23T07:13:51.461Z,96094.72
2022-12-23T07:15:57.312Z,96093.94
2022-12-23T07:18:02.925Z,96093.16
2022-12-23T07:20:14.651Z,96088.16
2022-12-23T07:22:20.429Z,96092.38
2022-12-23T07:24:26.775Z,96103.19
2022-12-23T07:26:32.473Z,96095.56
2022-12-23T07:28:47.674Z,96102.72
2022-12-23T07:30:53.446Z,96104.56
2022-12-23T07:32:59.002Z,96105.34
2022-12-23T07:35:04.633Z,96107.97
2022-12-23T07:37:10.213Z,96107.97
2022-12-23T07:39:15.742Z,96118.53
2022-12-23T07:41:21.599Z,96116.97
2022-12-23T07:43:27.023Z,96125.66
2022-12-23T07:45:35.639Z,96116.97
2022-12-23T07:47:41.052Z,96123.81
2022-12-23T07:49:46.408Z,96123.03
2022-12-23T07:51:51.708Z,96135.13
2022-12-23T07:53:57.193Z,96129.38
2022-12-23T07:56:02.789Z,96129.56
2022-12-23T07:58:08.535Z,96126.38
2022-12-23T08:00:15.924Z,96119.25
2022-12-23T08:02:25.381Z,96121.28
2022-12-23T08:04:31.108Z,96126.78
2022-12-23T08:06:38.928Z,96125.72
2022-12-23T08:08:47.218Z,96129.16
2022-12-23T08:10:52.741Z,96127.47
2022-12-23T08:12:58.279Z,96118.72
2022-12-23T08:15:03.705Z,96125.53
2022-12-23T08:17:09.635Z,96126.53
2022-12-23T08:19:17.638Z,96128.59
2022-12-23T08:21:23.573Z,96141.72
2022-12-23T08:23:31.258Z,96134.78
2022-12-23T08:25:36.541Z,96132.34
2022-12-23T08:27:41.841Z,96140.47
2022-12-23T08:29:47.523Z,96132.75
2022-12-23T08:31:54.356Z,96132.94
2022-12-23T08:34:01.815Z,96126.28
2022-12-23T08:36:16.252Z,96129.75
2022-12-23T08:38:26.386Z,96131.28
2022-12-23T08:40:31.944Z,96125.72
2022-12-23T08:42:37.206Z,96125.41
2022-12-23T08:44:42.661Z,96126.69
2022-12-23T08:46:48.650Z,96130.13
2022-12-23T08:48:54.450Z,96126.91
2022-12-23T08:50:59.784Z,96120.53
2022-12-23T08:53:08.225Z,96115.75
2022-12-23T08:55:13.489Z,96117.03
2022-12-23T08:57:19.268Z,96118.59
2022-12-23T08:59:26.332Z,96129.38
2022-12-23T09:01:36.110Z,96135.91
2022-12-23T09:03:43.479Z,96142.47
2022-12-23T09:05:48.881Z,96146.69
2022-12-23T09:07:54.199Z,96150.88
2022-12-23T09:10:02.241Z,96157.44
2022-12-23T09:12:08.043Z,96165.34
2022-12-23T09:14:14.486Z,96166.63
2022-12-23T09:16:21.348Z,96171.63
2022-12-23T09:18:26.690Z,96180.06
2022-12-23T09:20:31.959Z,96178.66
2022-12-23T09:22:37.933Z,96177.59
2022-12-23T09:24:43.239Z,96182.59
2022-12-23T09:26:51.276Z,96175.44
2022-12-23T09:28:58.271Z,96167.72
2022-12-23T09:31:11.490Z,96164.00
2022-12-23T09:33:19.903Z,96153.44
2022-12-23T09:35:25.647Z,96151.75
2022-12-23T09:37:31.337Z,96156.78
2022-12-23T09:39:37.070Z,96158.03
2022-12-23T09:42:02.088Z,96153.53
2022-12-23T09:44:36.532Z,96155.09
2022-12-23T09:46:54.339Z,96155.09
2022-12-23T09:49:08.095Z,96154.78
2022-12-23T09:51:15.853Z,96163.53
2022-12-23T09:53:25.467Z,96167.44
2022-12-23T09:55:43.277Z,96160.59
2022-12-23T09:58:01.499Z,96164.00
2022-12-23T10:00:15.982Z,96164.50
2022-12-23T10:02:36.324Z,96159.22
2022-12-23T10:04:55.612Z,96157.34
2022-12-23T10:07:25.515Z,96154.09
2022-12-23T10:09:33.075Z,96159.59
2022-12-23T10:11:45.262Z,96162.25
2022-12-23T10:13:58.141Z,96152.75
2022-12-23T10:16:10.015Z,96155.09
2022-12-23T10:18:25.615Z,96151.38
2022-12-23T10:20:42.893Z,96142.66
2022-12-23T10:22:50.215Z,96141.56
2022-12-23T10:25:00.599Z,96139.44
2022-12-23T10:27:21.171Z,96139.44
2022-12-23T10:29:34.172Z,96137.59
2022-12-23T10:31:51.995Z,96123.59
2022-12-23T10:34:13.348Z,96124.56
2022-12-23T10:36:29.321Z,96129.25
2022-12-23T10:38:55.795Z,96129.75
2022-12-23T10:41:11.986Z,96126.81
2022-12-23T10:43:29.785Z,96128.84
2022-12-23T10:45:54.501Z,96121.69
2022-12-23T10:48:18.085Z,96112.09
2022-12-23T10:50:52.377Z,96112.56
2022-12-23T10:53:04.210Z,96111.19
2022-12-23T10:55:24.311Z,96115.91
2022-12-23T10:57:33.382Z,96121.69
2022-12-23T10:59:39.933Z,96119.50
2022-12-23T11:01:56.790Z,96115.50
2022-12-23T11:04:10.597Z,96115.97
2022-12-23T11:06:16.963Z,96110.38
2022-12-23T11:08:23.947Z,96097.44
2022-12-23T11:10:34.322Z,96105.28
2022-12-23T11:12:45.299Z,96107.31
2022-12-23T11:14:57.970Z,96115.72
2022-12-23T11:17:07.843Z,96110.44
2022-12-23T11:19:18.955Z,96115.44
2022-12-23T11:21:24.417Z,96107.69
2022-12-23T11:23:35.290Z,96106.63
2022-12-23T11:25:43.923Z,96102.41
2022-12-23T11:27:50.081Z,96105.53
2022-12-23T11:29:57.945Z,96107.88
2022-12-23T11:32:18.931Z,96106.31
2022-12-23T11:34:28.174Z,96109.75
2022-12-23T11:36:35.408Z,96107.88
2022-12-23T11:38:53.972Z,96104.44
2022-12-23T11:40:59.802Z,96101.81
2022-12-23T11:43:09.588Z,96092.59
2022-12-23T11:45:26.887Z,96094.28
2022-12-23T11:47:42.013Z,96091.94
2022-12-23T11:49:53.196Z,96085.19
2022-12-23T11:52:16.677Z,96081.47
2022-12-23T11:54:23.472Z,96085.03
2022-12-23T11:56:30.031Z,96089.22
2022-12-23T11:58:48.457Z,96085.81
2022-12-23T12:00:58.381Z,96088.75
2022-12-23T12:03:09.710Z,96090.13
2022-12-23T12:05:28.509Z,96081.88
2022-12-23T12:07:35.864Z,96079.06
2022-12-23T12:09:46.018Z,96077.19
2022-12-23T12:11:55.479Z,96075.81
2022-12-23T12:14:04.657Z,96080.03
2022-12-23T12:16:33.541Z,96074.75
2022-12-23T12:18:45.581Z,96078.16
2022-12-23T12:20:58.392Z,96066.53
2022-12-23T12:23:11.873Z,96065.41
2022-12-23T12:25:25.477Z,96056.09
2022-12-23T12:27:40.753Z,96060.31
2022-12-23T12:29:52.953Z,96048.66
2022-12-23T12:32:02.640Z,96052.09
2022-12-23T12:34:31.320Z,96058.94
2022-12-23T12:36:49.298Z,96051.31
2022-12-23T12:38:59.625Z,96056.31
2022-12-23T12:41:18.703Z,96041.91
2022-12-23T12:43:32.645Z,96043.19
2022-12-23T12:58:29.505Z,96011.22
2022-12-23T13:00:52.188Z,96002.69
2022-12-23T13:03:33.581Z,96002.69
2022-12-23T13:05:56.467Z,95998.94
2022-12-23T13:08:25.394Z,96002.38
2022-12-23T13:10:45.578Z,95999.75
2022-12-23T13:13:06.695Z,95998.38
2022-12-23T13:15:26.368Z,96003.06
2022-12-23T13:17:40.664Z,95994.91
2022-12-23T13:19:54.404Z,95994.81
2022-12-23T13:22:10.588Z,95995.59
2022-12-23T13:24:26.185Z,95992.16
2022-12-23T13:26:40.474Z,95987.94
2022-12-23T13:28:58.821Z,95993.25
2022-12-23T13:31:21.280Z,95989.81
2022-12-23T13:33:38.734Z,95989.03
2022-12-23T13:36:06.775Z,95979.25
2022-12-23T13:38:39.534Z,95977.69
2022-12-23T13:41:01.201Z,95968.97
2022-12-23T13:43:16.335Z,95967.72
2022-12-23T13:45:24.366Z,95951.03
2022-12-23T13:47:46.702Z,95956.34
2022-12-23T13:50:04.005Z,95961.91
2022-12-23T13:52:17.319Z,95953.22
2022-12-23T13:54:40.358Z,95952.75
2022-12-23T13:56:55.896Z,95959.13
2022-12-23T13:59:02.392Z,95956.47
2022-12-23T14:01:36.616Z,95961.75
2022-12-23T14:03:45.209Z,95961.56
2022-12-23T14:05:52.739Z,95962.06
2022-12-23T14:07:58.813Z,95970.75
2022-12-23T14:10:27.527Z,95962.38
2022-12-23T14:12:41.240Z,95969.22
2022-12-23T14:15:04.799Z,95970.00
2022-12-23T14:17:24.174Z,95967.16
2022-12-23T14:20:00.650Z,95968.25
2022-12-23T14:22:32.514Z,95970.41
2022-12-23T14:25:36.409Z,95964.47
2022-12-23T14:28:02.893Z,95967.69
2022-12-23T14:30:18.280Z,95967.69
2022-12-23T14:32:29.859Z,95955.28
2022-12-23T14:34:37.139Z,95956.06
2022-12-23T14:37:35.302Z,95969.41
2022-12-23T14:39:40.722Z,95957.56
2022-12-23T14:41:57.533Z,95950.72
2022-12-23T14:44:06.035Z,95958.63
2022-12-23T14:47:00.092Z,95952.88
2022-12-23T14:49:39.689Z,95946.50
2022-12-23T14:51:50.948Z,95930.44
2022-12-23T14:54:18.757Z,95932.78
2022-12-23T14:56:39.117Z,95936.50
2022-12-23T14:59:15.547Z,95940.25
2022-12-23T15:01:29.051Z,95928.41
2022-12-23T15:03:43.380Z,95932.13
2022-12-23T15:05:51.154Z,95932.59
2022-12-23T15:07:59.621Z,95935.22
2022-12-23T15:10:09.377Z,95940.50
2022-12-23T15:12:21.580Z,95936.03
2022-12-23T15:14:37.453Z,95930.53
2022-12-23T15:16:46.545Z,95935.06
2022-12-23T15:18:59.814Z,95933.50
2022-12-23T15:21:13.628Z,95928.50
2022-12-23T15:23:21.823Z,95925.88
2022-12-23T15:25:31.966Z,95931.16
2022-12-23T15:27:39.881Z,95927.25
2022-12-23T15:29:52.684Z,95926.00
2022-12-23T15:32:02.941Z,95926.78
2022-12-23T15:34:17.263Z,95932.34
2022-12-23T15:36:35.830Z,95935.31
2022-12-23T15:38:44.829Z,95931.09
2022-12-23T15:41:01.831Z,95924.53
2022-12-23T15:43:21.005Z,95923.59
2022-12-23T15:45:39.558Z,95921.25
2022-12-23T15:47:45.981Z,95914.41
2022-12-23T15:49:51.457Z,95915.47
2022-12-23T15:52:13.765Z,95919.47
2022-12-23T15:54:35.211Z,95925.38
2022-12-23T15:56:48.696Z,95921.97
2022-12-23T15:58:55.186Z,95915.91
2022-12-23T16:01:03.438Z,95918.84
2022-12-23T16:03:15.848Z,95924.13
2022-12-23T16:05:32.605Z,95896.53
2022-12-23T16:07:41.148Z,95899.38
2022-12-23T16:09:49.693Z,95925.81
2022-12-23T16:11:59.632Z,95923.63
2022-12-23T16:14:27.792Z,95924.41
2022-12-23T16:16:40.160Z,95917.88
2022-12-23T16:18:47.852Z,95916.31
2022-12-23T16:20:57.785Z,95913.19
2022-12-23T16:23:06.141Z,95913.75
2022-12-23T16:25:24.913Z,95934.13
2022-12-23T16:27:40.593Z,95908.00
2022-12-23T16:29:48.682Z,95908.47
2022-12-23T16:32:01.794Z,95914.88
2022-12-23T16:34:10.642Z,95915.16
2022-12-23T16:36:34.483Z,95913.28
2022-12-23T16:38:40.003Z,95907.84
2022-12-23T16:40:50.893Z,95900.69
2022-12-23T16:58:45.873Z,95895.94
2022-12-23T18:01:28.765Z,95899.31
2022-12-23T18:03:34.298Z,95910.56
2022-12-23T18:05:40.171Z,95909.34
2022-12-23T18:07:45.634Z,95903.94
2022-12-23T18:09:51.690Z,95901.97
2022-12-23T18:11:57.754Z,95894.22
2022-12-23T18:14:05.704Z,95893.03
2022-12-23T18:16:15.647Z,95898.47
2022-12-23T18:18:37.691Z,95905.53
2022-12-23T18:20:54.363Z,95895.88
2022-12-23T18:23:05.224Z,95896.09
2022-12-23T18:25:18.901Z,95891.28
2022-12-23T18:27:26.546Z,95902.06
2022-12-23T18:29:31.935Z,95892.25
2022-12-23T18:31:38.803Z,95895.56
2022-12-23T18:33:47.435Z,95915.03
2022-12-23T18:35:56.825Z,95902.28
2022-12-23T18:38:03.151Z,95897.19
2022-12-23T18:40:10.141Z,95893.13
2022-12-23T18:42:17.754Z,95897.84
2022-12-23T18:44:24.611Z,95902.03
2022-12-23T18:46:29.985Z,95890.38
2022-12-23T18:48:35.339Z,95889.28
2022-12-23T18:50:46.852Z,95897.69
2022-12-23T18:52:52.921Z,95891.63
2022-12-23T18:54:58.293Z,95891.31
2022-12-23T18:57:04.979Z,95891.78
2022-12-23T18:59:22.747Z,95889.44
2022-12-23T19:01:32.686Z,95899.41
2022-12-23T19:03:38.085Z,95902.88
2022-12-23T19:05:46.353Z,95885.44
2022-12-23T19:14:33.270Z,95897.56
2022-12-23T19:17:06.061Z,95895.50
2022-12-23T19:19:12.251Z,95903.63
2022-12-23T19:21:21.530Z,95899.13
2022-12-23T19:23:27.256Z,95896.16
2022-12-23T19:25:32.581Z,95903.03
2022-12-23T19:27:38.952Z,95918.28
2022-12-23T19:29:44.420Z,95927.00
2022-12-23T19:31:49.769Z,95915.81
2022-12-23T19:33:55.434Z,95913.66
2022-12-23T19:36:00.935Z,95912.25
2022-12-23T19:38:09.262Z,95916.47
2022-12-23T19:40:15.461Z,95907.44
2022-12-23T19:42:21.143Z,95911.66
2022-12-23T19:44:27.964Z,95913.22
2022-12-23T19:46:34.052Z,95907.94
2022-12-23T19:48:41.522Z,95907.94
2022-12-23T19:50:47.498Z,95907.13
2022-12-23T19:53:00.030Z,95913.22
2022-12-23T19:55:10.900Z,95915.38
2022-12-23T19:57:16.478Z,95915.38
2022-12-23T19:59:22.828Z,95919.28
2022-12-23T20:01:30.758Z,95912.72
2022-12-23T20:03:37.072Z,95914.28
2022-12-23T20:05:43.359Z,95915.38
2022-12-23T20:07:49.048Z,95917.41
2022-12-23T20:09:55.143Z,95906.34
2022-12-23T20:12:04.202Z,95915.06
2022-12-23T20:14:11.359Z,95923.81
2022-12-23T20:16:17.519Z,95924.88
2022-12-23T20:18:25.540Z,95919.59
2022-12-23T20:20:31.153Z,95923.00
2022-12-23T20:22:36.663Z,95934.38
2022-12-23T20:24:41.937Z,95930.63
2022-12-23T20:26:47.912Z,95925.34
2022-12-23T20:28:55.899Z,95933.28
2022-12-23T20:31:11.000Z,95930.94
2022-12-23T20:33:16.534Z,95932.19
2022-12-23T20:35:22.158Z,96008.91
2022-12-23T20:37:27.550Z,96034.28
2022-12-23T20:39:33.254Z,96054.34
2022-12-23T20:41:38.952Z,96065.53
2022-12-23T20:43:56.944Z,96041.38
2022-12-23T20:46:17.872Z,96047.81
2022-12-23T20:48:26.883Z,96022.56
2022-12-23T20:50:40.120Z,95998.59
2022-12-23T20:52:56.241Z,96013.81
2022-12-23T20:55:16.708Z,96014.09
2022-12-23T20:57:24.978Z,96004.91
2022-12-23T20:59:30.774Z,96016.84
2022-12-23T21:01:41.772Z,96012.94
2022-12-23T21:03:47.160Z,96012.16
2022-12-23T21:05:52.924Z,96030.97
2022-12-23T21:07:58.834Z,96011.97
2022-12-23T21:10:04.425Z,96011.19
2022-12-23T21:12:12.554Z,95994.06
2022-12-23T21:14:20.206Z,95994.06
2022-12-23T21:16:28.682Z,95990.06
2022-12-23T21:18:39.449Z,96005.63
2022-12-23T21:20:47.787Z,96003.78
2022-12-23T21:22:55.479Z,96001.91
2022-12-23T21:25:01.413Z,95998.66
2022-12-23T21:27:09.654Z,96007.06
2022-12-23T21:29:16.320Z,96008.31
2022-12-23T21:31:25.522Z,96023.88
2022-12-23T21:33:39.306Z,96035.25
2022-12-23T21:35:44.918Z,96033.69
2022-12-23T21:37:50.738Z,96045.03
2022-12-23T21:39:58.965Z,96052.66
2022-12-23T21:42:06.206Z,96048.94
2022-12-23T21:44:13.832Z,96047.56
2022-12-23T21:46:25.514Z,96040.41
2022-12-23T21:48:38.652Z,96042.75
2022-12-23T21:50:44.398Z,96045.41
2022-12-23T21:52:49.733Z,96048.66
2022-12-23T21:54:55.389Z,96050.38
2022-12-23T21:57:01.131Z,96059.13
2022-12-23T21:59:17.166Z,96060.97
2022-12-23T22:01:24.082Z,96068.44
2022-12-23T22:03:31.022Z,96070.78
2022-12-23T22:05:39.347Z,96072.34
2022-12-23T22:07:44.988Z,96084.47
2022-12-23T22:09:50.663Z,96073.88
2022-12-23T22:11:56.420Z,96083.38
2022-12-23T22:14:04.023Z,96076.22
2022-12-23T22:16:13.637Z,96074.38
2022-12-23T22:18:19.320Z,96084.97
2022-12-23T22:24:19.997Z,96092.69
2022-12-23T22:33:11.122Z,96088.13
2022-12-23T22:35:16.597Z,96088.59
2022-12-23T22:37:22.465Z,96106.81
2022-12-23T22:39:27.868Z,96098.88
2022-12-23T22:41:34.560Z,96101.81
2022-12-23T22:43:40.649Z,96103.19
2022-12-23T22:45:46.336Z,96100.69
2022-12-23T22:47:51.825Z,96106.72
2022-12-23T22:50:00.198Z,96107.50
2022-12-23T22:52:05.421Z,96111.44
2022-12-23T22:54:11.120Z,96106.94
2022-12-23T22:56:19.587Z,96115.94
2022-12-23T22:58:25.231Z,96124.94
2022-12-23T23:00:30.533Z,96112.03
2022-12-23T23:02:35.918Z,96124.63
2022-12-23T23:04:41.512Z,96139.72
2022-12-23T23:06:49.821Z,96142.38
2022-12-23T23:08:55.502Z,96134.91
2022-12-23T23:11:03.509Z,96132.28
2022-12-23T23:13:08.917Z,96134.91
2022-12-23T23:15:14.927Z,96128.84
2022-12-23T23:17:20.475Z,96141.00
2022-12-23T23:19:25.797Z,96154.22
2022-12-23T23:21:31.466Z,96146.78
2022-12-23T23:23:39.595Z,96146.78
2022-12-23T23:25:45.838Z,96153.94
2022-12-23T23:27:51.712Z,96151.59
2022-12-23T23:29:57.051Z,96157.94
2022-12-23T23:32:02.663Z,96164.81
2022-12-23T23:34:08.105Z,96164.28
2022-12-23T23:36:13.957Z,96162.16
2022-12-23T23:38:19.218Z,96166.66
2022-12-23T23:40:27.787Z,96179.88
2022-12-23T23:42:33.377Z,96167.44
2022-12-23T23:44:38.704Z,96178.50
2022-12-23T23:46:44.160Z,96173.97
2022-12-23T23:48:49.617Z,96183.78
2022-12-23T23:50:54.940Z,96189.84
2022-12-23T23:53:00.340Z,96192.78
2022-12-23T23:55:05.815Z,96188.91
2022-12-23T23:57:16.613Z,96182.13
2022-12-23T23:59:21.995Z,96196.03
